Aérodrome :
LOGIN :

S'inscrire | Disclaimer

   EN    FR    IT 

 










Légende :    VFR   VFR Marginal   IFR   IFR Intensif   IFR Très Intensif
Visi : 
Plafond : 
>= 8 km
>= 3000ft
5 à 8 km
1000 à 3000 ft
1500m à 5 km
500 à 1000 ft
800 à 1500m
200 à 500 ft
< 800m
< 200 ft
Symboles :   Orages  Brouillard  Fortes neiges  Fortes précipitations  Vent > 20 kt
SIGMETs :   Divers  Orages  Givrage  Turbulence  Onde Orograph.  Cendres Volcan.







- Altitude de l'aérodrome : 1273 ft
- Code IATA : LJU


LJLJ - Ljubljana

DERNIER METAR :
  • 181800Z 29001KT 9999 SCT045 BKN070 03/M01 Q1017 NOSIG

METARs EXPIRÉS :
  • 181730Z VRB01KT 9999 FEW037 BKN050 03/M01 Q1017 NOSIG
  • 181700Z 22002KT 9999 FEW037 BKN050 03/M01 Q1018 NOSIG
  • 181630Z 19002KT 9999 FEW037 BKN050 02/M01 Q1018 NOSIG
  • 181600Z VRB01KT 9999 FEW037 BKN050 02/M00 Q1018 NOSIG
  • 181530Z 20003KT 170V240 9999 FEW037 BKN045 03/M00 Q1018 NOSIG

TAF TAF LJLJ
Valide du 18 à 18h jusqu'au 19 à 18h UTC


181700Z 1818/1918 12004KT 9999 BKN045
BECMG 1818/1821 7000 OVC030
TEMPO 1900/1918 3500 -SN BR SCT010 OVC020
Pas de NOTAMs connus pour ce terrain.



MET'MAP, la Météo Aéronautique d'un coup d'oeil ! - Copyright ORBIFLY Décembre 2007 - Disclaimer

ORBIFLY MET'MAP TEAM :

Programmation & Développement : Alexandra Zaïnal
Conception & Développement : Baudouin d'Aumeries
Co-Programmation & Développement : Marc-Olivier Méhu
Soutien technique & logistique : Manuel Goepfert

Contact : metmap@orbifly.com




SOURCES & CREDITS :

   NOAA